sensor_id;sensor_type;location;lat;lon;timestamp;P1;durP1;ratioP1;P2;durP2;ratioP2
48014;SDS011;33780;51.034;7.120;2022-10-16T00:00:39;2.03;;;0.85;;
48014;SDS011;33780;51.034;7.120;2022-10-16T00:03:06;1.60;;;0.80;;
48014;SDS011;33780;51.034;7.120;2022-10-16T00:05:32;1.80;;;0.80;;
48014;SDS011;33780;51.034;7.120;2022-10-16T00:07:57;2.75;;;0.80;;
48014;SDS011;33780;51.034;7.120;2022-10-16T00:10:23;1.65;;;0.85;;
48014;SDS011;33780;51.034;7.120;2022-10-16T00:12:49;2.03;;;1.00;;
48014;SDS011;33780;51.034;7.120;2022-10-16T00:15:14;1.92;;;0.93;;
48014;SDS011;33780;51.034;7.120;2022-10-16T00:17:40;1.80;;;0.77;;
48014;SDS011;33780;51.034;7.120;2022-10-16T00:20:05;1.80;;;0.80;;
48014;SDS011;33780;51.034;7.120;2022-10-16T00:22:32;1.63;;;0.93;;
48014;SDS011;33780;51.034;7.120;2022-10-16T00:24:57;2.92;;;0.90;;
48014;SDS011;33780;51.034;7.120;2022-10-16T00:27:23;3.05;;;0.88;;
48014;SDS011;33780;51.034;7.120;2022-10-16T00:29:51;2.28;;;0.60;;
48014;SDS011;33780;51.034;7.120;2022-10-16T00:32:18;1.90;;;0.80;;
48014;SDS011;33780;51.034;7.120;2022-10-16T00:34:44;3.28;;;0.80;;
48014;SDS011;33780;51.034;7.120;2022-10-16T00:37:09;1.77;;;0.88;;
48014;SDS011;33780;51.034;7.120;2022-10-16T00:39:35;5.30;;;1.00;;
48014;SDS011;33780;51.034;7.120;2022-10-16T00:42:00;1.77;;;1.00;;
48014;SDS011;33780;51.034;7.120;2022-10-16T00:47:19;3.90;;;0.90;;
48014;SDS011;33780;51.034;7.120;2022-10-16T00:49:47;3.45;;;0.85;;
48014;SDS011;33780;51.034;7.120;2022-10-16T00:52:15;4.30;;;1.13;;
48014;SDS011;33780;51.034;7.120;2022-10-16T00:54:41;1.38;;;0.70;;
48014;SDS011;33780;51.034;7.120;2022-10-16T00:57:06;2.08;;;0.80;;
48014;SDS011;33780;51.034;7.120;2022-10-16T00:59:33;1.90;;;0.80;;
48014;SDS011;33780;51.034;7.120;2022-10-16T01:02:04;2.95;;;0.80;;
48014;SDS011;33780;51.034;7.120;2022-10-16T01:04:35;1.67;;;0.63;;
48014;SDS011;33780;51.034;7.120;2022-10-16T01:07:08;1.83;;;0.77;;
48014;SDS011;33780;51.034;7.120;2022-10-16T01:15:30;1.52;;;0.60;;
48014;SDS011;33780;51.034;7.120;2022-10-16T01:20:47;1.35;;;0.70;;
48014;SDS011;33780;51.034;7.120;2022-10-16T01:26:08;1.65;;;0.90;;
48014;SDS011;33780;51.034;7.120;2022-10-16T01:28:42;1.42;;;0.70;;
48014;SDS011;33780;51.034;7.120;2022-10-16T01:31:17;1.60;;;0.73;;
48014;SDS011;33780;51.034;7.120;2022-10-16T01:33:47;1.65;;;0.77;;
48014;SDS011;33780;51.034;7.120;2022-10-16T01:36:21;1.50;;;0.70;;
48014;SDS011;33780;51.034;7.120;2022-10-16T01:38:52;3.63;;;0.70;;
48014;SDS011;33780;51.034;7.120;2022-10-16T01:41:28;1.63;;;0.80;;
48014;SDS011;33780;51.034;7.120;2022-10-16T01:46:39;1.60;;;0.60;;
48014;SDS011;33780;51.034;7.120;2022-10-16T01:49:08;1.23;;;0.70;;
48014;SDS011;33780;51.034;7.120;2022-10-16T01:51:35;2.03;;;0.68;;
48014;SDS011;33780;51.034;7.120;2022-10-16T01:54:02;1.17;;;0.52;;
48014;SDS011;33780;51.034;7.120;2022-10-16T01:56:32;1.33;;;0.60;;
48014;SDS011;33780;51.034;7.120;2022-10-16T01:59:04;2.13;;;0.70;;
48014;SDS011;33780;51.034;7.120;2022-10-16T02:01:33;1.27;;;0.57;;
48014;SDS011;33780;51.034;7.120;2022-10-16T02:04:04;2.35;;;0.70;;
48014;SDS011;33780;51.034;7.120;2022-10-16T02:06:36;2.40;;;0.73;;
48014;SDS011;33780;51.034;7.120;2022-10-16T02:09:02;1.65;;;0.95;;
48014;SDS011;33780;51.034;7.120;2022-10-16T02:11:27;1.08;;;0.50;;
48014;SDS011;33780;51.034;7.120;2022-10-16T02:13:54;2.75;;;0.70;;
48014;SDS011;33780;51.034;7.120;2022-10-16T02:16:32;2.72;;;0.70;;
48014;SDS011;33780;51.034;7.120;2022-10-16T02:18:58;1.38;;;0.50;;
48014;SDS011;33780;51.034;7.120;2022-10-16T02:21:25;1.50;;;0.60;;
48014;SDS011;33780;51.034;7.120;2022-10-16T02:23:55;2.78;;;0.60;;
48014;SDS011;33780;51.034;7.120;2022-10-16T02:26:30;4.32;;;0.60;;
48014;SDS011;33780;51.034;7.120;2022-10-16T02:29:02;1.10;;;0.57;;
48014;SDS011;33780;51.034;7.120;2022-10-16T02:31:34;4.05;;;0.70;;
48014;SDS011;33780;51.034;7.120;2022-10-16T02:34:03;1.98;;;0.75;;
48014;SDS011;33780;51.034;7.120;2022-10-16T02:36:30;2.22;;;0.80;;
48014;SDS011;33780;51.034;7.120;2022-10-16T02:38:58;1.20;;;0.60;;
48014;SDS011;33780;51.034;7.120;2022-10-16T02:41:26;1.70;;;0.70;;
48014;SDS011;33780;51.034;7.120;2022-10-16T02:43:51;1.20;;;0.70;;
48014;SDS011;33780;51.034;7.120;2022-10-16T02:46:17;2.30;;;0.80;;
48014;SDS011;33780;51.034;7.120;2022-10-16T02:48:43;2.67;;;0.80;;
48014;SDS011;33780;51.034;7.120;2022-10-16T02:51:08;1.83;;;0.77;;
48014;SDS011;33780;51.034;7.120;2022-10-16T02:53:33;3.50;;;0.90;;
48014;SDS011;33780;51.034;7.120;2022-10-16T02:55:59;1.77;;;0.75;;
48014;SDS011;33780;51.034;7.120;2022-10-16T02:58:24;1.83;;;0.80;;
48014;SDS011;33780;51.034;7.120;2022-10-16T03:00:49;1.67;;;0.82;;
48014;SDS011;33780;51.034;7.120;2022-10-16T03:03:15;3.88;;;0.75;;
48014;SDS011;33780;51.034;7.120;2022-10-16T03:05:40;1.65;;;0.68;;
48014;SDS011;33780;51.034;7.120;2022-10-16T03:08:07;3.30;;;0.80;;
48014;SDS011;33780;51.034;7.120;2022-10-16T03:10:32;3.00;;;0.90;;
48014;SDS011;33780;51.034;7.120;2022-10-16T03:12:58;1.17;;;0.68;;
48014;SDS011;33780;51.034;7.120;2022-10-16T03:15:23;4.93;;;0.90;;
48014;SDS011;33780;51.034;7.120;2022-10-16T03:17:49;2.92;;;0.63;;
48014;SDS011;33780;51.034;7.120;2022-10-16T03:20:14;3.60;;;0.80;;
48014;SDS011;33780;51.034;7.120;2022-10-16T03:22:39;1.42;;;0.75;;
48014;SDS011;33780;51.034;7.120;2022-10-16T03:25:05;2.70;;;0.77;;
48014;SDS011;33780;51.034;7.120;2022-10-16T03:27:31;2.15;;;0.65;;
48014;SDS011;33780;51.034;7.120;2022-10-16T03:29:56;3.05;;;0.80;;
48014;SDS011;33780;51.034;7.120;2022-10-16T03:32:21;3.13;;;0.70;;
48014;SDS011;33780;51.034;7.120;2022-10-16T03:34:47;1.90;;;0.80;;
48014;SDS011;33780;51.034;7.120;2022-10-16T03:37:12;2.45;;;0.65;;
48014;SDS011;33780;51.034;7.120;2022-10-16T03:39:37;1.17;;;0.70;;
48014;SDS011;33780;51.034;7.120;2022-10-16T03:42:03;2.20;;;0.80;;
48014;SDS011;33780;51.034;7.120;2022-10-16T03:44:28;1.25;;;0.70;;
48014;SDS011;33780;51.034;7.120;2022-10-16T03:46:53;4.07;;;0.95;;
48014;SDS011;33780;51.034;7.120;2022-10-16T03:49:19;2.53;;;0.73;;
48014;SDS011;33780;51.034;7.120;2022-10-16T03:51:44;2.25;;;0.93;;
48014;SDS011;33780;51.034;7.120;2022-10-16T03:54:09;1.95;;;0.80;;
48014;SDS011;33780;51.034;7.120;2022-10-16T03:56:35;1.85;;;0.70;;
48014;SDS011;33780;51.034;7.120;2022-10-16T03:59:00;1.25;;;0.65;;
48014;SDS011;33780;51.034;7.120;2022-10-16T04:01:26;4.10;;;0.70;;
48014;SDS011;33780;51.034;7.120;2022-10-16T04:03:51;4.10;;;0.85;;
48014;SDS011;33780;51.034;7.120;2022-10-16T04:06:16;1.23;;;0.70;;
48014;SDS011;33780;51.034;7.120;2022-10-16T04:08:42;1.48;;;0.75;;
48014;SDS011;33780;51.034;7.120;2022-10-16T04:11:08;2.22;;;0.93;;
48014;SDS011;33780;51.034;7.120;2022-10-16T04:13:33;1.15;;;0.70;;
48014;SDS011;33780;51.034;7.120;2022-10-16T04:15:59;2.95;;;1.08;;
48014;SDS011;33780;51.034;7.120;2022-10-16T04:18:24;2.13;;;0.80;;
48014;SDS011;33780;51.034;7.120;2022-10-16T04:20:52;1.38;;;0.70;;
48014;SDS011;33780;51.034;7.120;2022-10-16T04:23:17;1.42;;;0.80;;
48014;SDS011;33780;51.034;7.120;2022-10-16T04:25:42;2.42;;;0.73;;
48014;SDS011;33780;51.034;7.120;2022-10-16T04:28:08;1.67;;;0.90;;
48014;SDS011;33780;51.034;7.120;2022-10-16T04:30:33;1.52;;;0.77;;
48014;SDS011;33780;51.034;7.120;2022-10-16T04:32:58;2.72;;;1.00;;
48014;SDS011;33780;51.034;7.120;2022-10-16T04:35:24;1.52;;;0.85;;
48014;SDS011;33780;51.034;7.120;2022-10-16T04:37:49;2.55;;;0.88;;
48014;SDS011;33780;51.034;7.120;2022-10-16T04:40:15;2.70;;;0.80;;
48014;SDS011;33780;51.034;7.120;2022-10-16T04:42:41;2.47;;;0.90;;
48014;SDS011;33780;51.034;7.120;2022-10-16T04:45:06;2.95;;;0.70;;
48014;SDS011;33780;51.034;7.120;2022-10-16T04:47:33;1.30;;;0.70;;
48014;SDS011;33780;51.034;7.120;2022-10-16T04:49:58;1.63;;;0.95;;
48014;SDS011;33780;51.034;7.120;2022-10-16T04:52:26;1.60;;;0.73;;
48014;SDS011;33780;51.034;7.120;2022-10-16T04:54:51;1.45;;;0.80;;
48014;SDS011;33780;51.034;7.120;2022-10-16T04:57:16;1.58;;;0.70;;
48014;SDS011;33780;51.034;7.120;2022-10-16T04:59:42;1.60;;;0.73;;
48014;SDS011;33780;51.034;7.120;2022-10-16T05:02:07;1.48;;;0.90;;
48014;SDS011;33780;51.034;7.120;2022-10-16T05:04:33;1.73;;;0.82;;
48014;SDS011;33780;51.034;7.120;2022-10-16T05:06:58;2.60;;;0.90;;
48014;SDS011;33780;51.034;7.120;2022-10-16T05:09:24;1.60;;;0.85;;
48014;SDS011;33780;51.034;7.120;2022-10-16T05:11:49;2.08;;;0.65;;
48014;SDS011;33780;51.034;7.120;2022-10-16T05:14:14;2.42;;;0.80;;
48014;SDS011;33780;51.034;7.120;2022-10-16T05:16:40;1.48;;;0.77;;
48014;SDS011;33780;51.034;7.120;2022-10-16T05:19:05;1.25;;;0.70;;
48014;SDS011;33780;51.034;7.120;2022-10-16T05:21:30;2.50;;;0.85;;
48014;SDS011;33780;51.034;7.120;2022-10-16T05:23:56;1.50;;;0.80;;
48014;SDS011;33780;51.034;7.120;2022-10-16T05:26:21;1.48;;;0.82;;
48014;SDS011;33780;51.034;7.120;2022-10-16T05:28:46;2.97;;;0.70;;
48014;SDS011;33780;51.034;7.120;2022-10-16T05:31:12;1.05;;;0.60;;
48014;SDS011;33780;51.034;7.120;2022-10-16T05:33:37;2.50;;;0.80;;
48014;SDS011;33780;51.034;7.120;2022-10-16T05:36:03;1.10;;;0.68;;
48014;SDS011;33780;51.034;7.120;2022-10-16T05:38:31;1.45;;;0.80;;
48014;SDS011;33780;51.034;7.120;2022-10-16T05:40:56;1.73;;;0.80;;
48014;SDS011;33780;51.034;7.120;2022-10-16T05:43:21;1.30;;;0.68;;
48014;SDS011;33780;51.034;7.120;2022-10-16T05:46:00;1.23;;;0.60;;
48014;SDS011;33780;51.034;7.120;2022-10-16T05:48:28;1.38;;;0.80;;
48014;SDS011;33780;51.034;7.120;2022-10-16T05:51:01;1.83;;;0.77;;
48014;SDS011;33780;51.034;7.120;2022-10-16T05:53:32;1.20;;;0.73;;
48014;SDS011;33780;51.034;7.120;2022-10-16T05:55:59;1.20;;;0.60;;
48014;SDS011;33780;51.034;7.120;2022-10-16T05:58:25;1.65;;;0.80;;
48014;SDS011;33780;51.034;7.120;2022-10-16T06:00:54;1.58;;;0.65;;
48014;SDS011;33780;51.034;7.120;2022-10-16T06:03:24;1.10;;;0.70;;
48014;SDS011;33780;51.034;7.120;2022-10-16T06:05:50;1.90;;;0.80;;
48014;SDS011;33780;51.034;7.120;2022-10-16T06:08:15;1.13;;;0.60;;
48014;SDS011;33780;51.034;7.120;2022-10-16T06:10:42;1.48;;;0.80;;
48014;SDS011;33780;51.034;7.120;2022-10-16T06:13:11;2.30;;;0.70;;
48014;SDS011;33780;51.034;7.120;2022-10-16T06:15:38;4.05;;;0.77;;
48014;SDS011;33780;51.034;7.120;2022-10-16T06:18:04;1.55;;;0.80;;
48014;SDS011;33780;51.034;7.120;2022-10-16T06:20:39;1.83;;;0.77;;
48014;SDS011;33780;51.034;7.120;2022-10-16T06:23:04;1.10;;;0.70;;
48014;SDS011;33780;51.034;7.120;2022-10-16T06:25:35;1.20;;;0.70;;
48014;SDS011;33780;51.034;7.120;2022-10-16T06:28:15;2.05;;;0.70;;
48014;SDS011;33780;51.034;7.120;2022-10-16T06:30:40;1.65;;;0.82;;
48014;SDS011;33780;51.034;7.120;2022-10-16T06:33:08;1.38;;;0.80;;
48014;SDS011;33780;51.034;7.120;2022-10-16T06:35:34;2.20;;;0.80;;
48014;SDS011;33780;51.034;7.120;2022-10-16T06:38:00;2.30;;;0.75;;
48014;SDS011;33780;51.034;7.120;2022-10-16T06:40:26;1.95;;;0.93;;
48014;SDS011;33780;51.034;7.120;2022-10-16T06:42:57;2.60;;;0.88;;
48014;SDS011;33780;51.034;7.120;2022-10-16T06:45:44;1.48;;;0.70;;
48014;SDS011;33780;51.034;7.120;2022-10-16T06:48:15;1.88;;;0.80;;
48014;SDS011;33780;51.034;7.120;2022-10-16T06:50:44;2.00;;;0.73;;
48014;SDS011;33780;51.034;7.120;2022-10-16T06:53:09;2.15;;;0.80;;
48014;SDS011;33780;51.034;7.120;2022-10-16T06:55:34;2.08;;;0.82;;
48014;SDS011;33780;51.034;7.120;2022-10-16T06:58:00;4.13;;;0.80;;
48014;SDS011;33780;51.034;7.120;2022-10-16T07:00:28;5.22;;;1.05;;
48014;SDS011;33780;51.034;7.120;2022-10-16T07:02:53;2.47;;;0.80;;
48014;SDS011;33780;51.034;7.120;2022-10-16T07:05:21;1.77;;;0.95;;
48014;SDS011;33780;51.034;7.120;2022-10-16T07:07:46;1.83;;;0.70;;
48014;SDS011;33780;51.034;7.120;2022-10-16T07:10:12;1.70;;;0.70;;
48014;SDS011;33780;51.034;7.120;2022-10-16T07:12:37;1.10;;;0.65;;
48014;SDS011;33780;51.034;7.120;2022-10-16T07:15:03;1.77;;;0.88;;
48014;SDS011;33780;51.034;7.120;2022-10-16T07:17:28;1.30;;;0.80;;
48014;SDS011;33780;51.034;7.120;2022-10-16T07:19:53;3.40;;;1.10;;
48014;SDS011;33780;51.034;7.120;2022-10-16T07:22:20;3.33;;;0.90;;
48014;SDS011;33780;51.034;7.120;2022-10-16T07:24:45;1.65;;;0.93;;
48014;SDS011;33780;51.034;7.120;2022-10-16T07:27:11;2.55;;;1.00;;
48014;SDS011;33780;51.034;7.120;2022-10-16T07:29:36;1.73;;;0.93;;
48014;SDS011;33780;51.034;7.120;2022-10-16T07:32:01;2.50;;;0.95;;
48014;SDS011;33780;51.034;7.120;2022-10-16T07:34:27;1.95;;;0.95;;
48014;SDS011;33780;51.034;7.120;2022-10-16T07:36:53;1.98;;;1.00;;
48014;SDS011;33780;51.034;7.120;2022-10-16T07:39:18;1.23;;;0.70;;
48014;SDS011;33780;51.034;7.120;2022-10-16T07:41:44;1.48;;;0.80;;
48014;SDS011;33780;51.034;7.120;2022-10-16T07:44:09;1.52;;;0.80;;
48014;SDS011;33780;51.034;7.120;2022-10-16T07:46:34;1.40;;;0.77;;
48014;SDS011;33780;51.034;7.120;2022-10-16T07:49:01;1.60;;;0.80;;
48014;SDS011;33780;51.034;7.120;2022-10-16T07:51:26;2.47;;;1.00;;
48014;SDS011;33780;51.034;7.120;2022-10-16T07:53:52;1.95;;;0.95;;
48014;SDS011;33780;51.034;7.120;2022-10-16T07:56:18;1.52;;;0.90;;
48014;SDS011;33780;51.034;7.120;2022-10-16T07:58:44;1.98;;;0.85;;
48014;SDS011;33780;51.034;7.120;2022-10-16T08:01:11;1.90;;;0.85;;
48014;SDS011;33780;51.034;7.120;2022-10-16T08:03:40;2.92;;;0.70;;
48014;SDS011;33780;51.034;7.120;2022-10-16T08:06:10;1.13;;;0.70;;
48014;SDS011;33780;51.034;7.120;2022-10-16T08:08:36;1.60;;;0.80;;
48014;SDS011;33780;51.034;7.120;2022-10-16T08:11:01;1.40;;;0.80;;
48014;SDS011;33780;51.034;7.120;2022-10-16T08:13:28;1.83;;;0.73;;
48014;SDS011;33780;51.034;7.120;2022-10-16T08:15:54;1.50;;;0.63;;
48014;SDS011;33780;51.034;7.120;2022-10-16T08:18:20;1.08;;;0.60;;
48014;SDS011;33780;51.034;7.120;2022-10-16T08:20:45;1.38;;;0.70;;
48014;SDS011;33780;51.034;7.120;2022-10-16T08:23:11;3.03;;;0.80;;
48014;SDS011;33780;51.034;7.120;2022-10-16T08:25:38;1.13;;;0.60;;
48014;SDS011;33780;51.034;7.120;2022-10-16T08:28:04;3.22;;;0.88;;
48014;SDS011;33780;51.034;7.120;2022-10-16T08:30:33;1.83;;;0.80;;
48014;SDS011;33780;51.034;7.120;2022-10-16T08:32:59;1.75;;;0.80;;
48014;SDS011;33780;51.034;7.120;2022-10-16T08:35:24;1.80;;;0.80;;
48014;SDS011;33780;51.034;7.120;2022-10-16T08:37:49;2.10;;;0.77;;
48014;SDS011;33780;51.034;7.120;2022-10-16T08:40:19;3.50;;;1.00;;
48014;SDS011;33780;51.034;7.120;2022-10-16T08:43:00;1.40;;;0.80;;
48014;SDS011;33780;51.034;7.120;2022-10-16T08:45:31;1.38;;;0.65;;
48014;SDS011;33780;51.034;7.120;2022-10-16T08:50:42;1.48;;;0.80;;
48014;SDS011;33780;51.034;7.120;2022-10-16T08:53:10;1.13;;;0.68;;
48014;SDS011;33780;51.034;7.120;2022-10-16T08:55:46;2.42;;;0.80;;
48014;SDS011;33780;51.034;7.120;2022-10-16T08:58:23;2.30;;;0.88;;
48014;SDS011;33780;51.034;7.120;2022-10-16T09:00:55;2.55;;;0.70;;
48014;SDS011;33780;51.034;7.120;2022-10-16T09:09:20;1.08;;;0.52;;
48014;SDS011;33780;51.034;7.120;2022-10-16T09:12:12;0.90;;;0.45;;
48014;SDS011;33780;51.034;7.120;2022-10-16T09:23:08;1.23;;;0.65;;
48014;SDS011;33780;51.034;7.120;2022-10-16T09:25:39;1.60;;;0.80;;
48014;SDS011;33780;51.034;7.120;2022-10-16T09:28:08;1.42;;;0.60;;
48014;SDS011;33780;51.034;7.120;2022-10-16T09:30:35;2.10;;;0.40;;
48014;SDS011;33780;51.034;7.120;2022-10-16T09:33:00;1.20;;;0.57;;
48014;SDS011;33780;51.034;7.120;2022-10-16T09:35:37;1.50;;;0.77;;
48014;SDS011;33780;51.034;7.120;2022-10-16T09:38:03;1.90;;;0.60;;
48014;SDS011;33780;51.034;7.120;2022-10-16T09:40:29;3.03;;;0.70;;
48014;SDS011;33780;51.034;7.120;2022-10-16T09:45:56;0.80;;;0.40;;
48014;SDS011;33780;51.034;7.120;2022-10-16T09:48:21;1.30;;;0.32;;
48014;SDS011;33780;51.034;7.120;2022-10-16T09:51:01;0.90;;;0.40;;
48014;SDS011;33780;51.034;7.120;2022-10-16T09:53:39;2.75;;;0.50;;
48014;SDS011;33780;51.034;7.120;2022-10-16T09:56:10;0.70;;;0.40;;
48014;SDS011;33780;51.034;7.120;2022-10-16T09:58:50;0.93;;;0.32;;
48014;SDS011;33780;51.034;7.120;2022-10-16T10:01:17;1.20;;;0.45;;
48014;SDS011;33780;51.034;7.120;2022-10-16T10:03:44;0.77;;;0.40;;
48014;SDS011;33780;51.034;7.120;2022-10-16T10:06:16;0.30;;;0.28;;
48014;SDS011;33780;51.034;7.120;2022-10-16T10:08:56;2.22;;;0.40;;
48014;SDS011;33780;51.034;7.120;2022-10-16T10:11:36;1.35;;;0.38;;
48014;SDS011;33780;51.034;7.120;2022-10-16T10:14:23;0.75;;;0.30;;
48014;SDS011;33780;51.034;7.120;2022-10-16T10:19:36;1.07;;;0.40;;
48014;SDS011;33780;51.034;7.120;2022-10-16T10:22:28;1.08;;;0.40;;
48014;SDS011;33780;51.034;7.120;2022-10-16T10:25:14;1.27;;;0.40;;
48014;SDS011;33780;51.034;7.120;2022-10-16T10:31:00;0.55;;;0.20;;
48014;SDS011;33780;51.034;7.120;2022-10-16T10:33:38;0.95;;;0.30;;
48014;SDS011;33780;51.034;7.120;2022-10-16T10:39:05;1.00;;;0.40;;
48014;SDS011;33780;51.034;7.120;2022-10-16T10:44:53;1.13;;;0.40;;
48014;SDS011;33780;51.034;7.120;2022-10-16T10:47:26;0.90;;;0.30;;
48014;SDS011;33780;51.034;7.120;2022-10-16T10:50:25;0.80;;;0.30;;
48014;SDS011;33780;51.034;7.120;2022-10-16T10:53:11;1.20;;;0.40;;
48014;SDS011;33780;51.034;7.120;2022-10-16T10:58:31;1.13;;;0.50;;
48014;SDS011;33780;51.034;7.120;2022-10-16T11:06:40;0.50;;;0.30;;
48014;SDS011;33780;51.034;7.120;2022-10-16T11:09:18;1.40;;;0.30;;
48014;SDS011;33780;51.034;7.120;2022-10-16T11:11:49;0.82;;;0.40;;
48014;SDS011;33780;51.034;7.120;2022-10-16T11:14:21;0.63;;;0.30;;
48014;SDS011;33780;51.034;7.120;2022-10-16T11:16:56;0.43;;;0.20;;
48014;SDS011;33780;51.034;7.120;2022-10-16T11:19:35;1.05;;;0.30;;
48014;SDS011;33780;51.034;7.120;2022-10-16T11:22:17;1.25;;;0.47;;
48014;SDS011;33780;51.034;7.120;2022-10-16T11:27:36;0.68;;;0.20;;
48014;SDS011;33780;51.034;7.120;2022-10-16T11:30:05;1.13;;;0.50;;
48014;SDS011;33780;51.034;7.120;2022-10-16T11:32:50;0.90;;;0.30;;
48014;SDS011;33780;51.034;7.120;2022-10-16T11:35:25;0.40;;;0.30;;
48014;SDS011;33780;51.034;7.120;2022-10-16T11:37:59;0.60;;;0.30;;
48014;SDS011;33780;51.034;7.120;2022-10-16T11:40:33;1.20;;;0.30;;
48014;SDS011;33780;51.034;7.120;2022-10-16T11:43:10;0.90;;;0.30;;
48014;SDS011;33780;51.034;7.120;2022-10-16T11:45:44;2.25;;;0.40;;
48014;SDS011;33780;51.034;7.120;2022-10-16T11:51:05;0.90;;;0.25;;
48014;SDS011;33780;51.034;7.120;2022-10-16T11:53:46;1.27;;;0.30;;
48014;SDS011;33780;51.034;7.120;2022-10-16T11:56:20;1.05;;;0.30;;
48014;SDS011;33780;51.034;7.120;2022-10-16T11:58:54;0.93;;;0.30;;
48014;SDS011;33780;51.034;7.120;2022-10-16T12:01:28;1.27;;;0.30;;
48014;SDS011;33780;51.034;7.120;2022-10-16T12:06:50;0.73;;;0.30;;
48014;SDS011;33780;51.034;7.120;2022-10-16T12:09:24;0.88;;;0.22;;
48014;SDS011;33780;51.034;7.120;2022-10-16T12:11:52;0.52;;;0.20;;
48014;SDS011;33780;51.034;7.120;2022-10-16T12:14:20;0.80;;;0.30;;
48014;SDS011;33780;51.034;7.120;2022-10-16T12:17:00;0.60;;;0.25;;
48014;SDS011;33780;51.034;7.120;2022-10-16T12:19:30;2.85;;;0.40;;
48014;SDS011;33780;51.034;7.120;2022-10-16T12:21:57;1.42;;;0.30;;
48014;SDS011;33780;51.034;7.120;2022-10-16T12:24:38;1.38;;;0.20;;
48014;SDS011;33780;51.034;7.120;2022-10-16T12:27:18;0.73;;;0.30;;
48014;SDS011;33780;51.034;7.120;2022-10-16T12:29:49;0.73;;;0.30;;
48014;SDS011;33780;51.034;7.120;2022-10-16T12:32:24;0.90;;;0.28;;
48014;SDS011;33780;51.034;7.120;2022-10-16T12:34:57;1.83;;;0.40;;
48014;SDS011;33780;51.034;7.120;2022-10-16T12:37:25;1.83;;;0.40;;
48014;SDS011;33780;51.034;7.120;2022-10-16T12:39:54;0.70;;;0.30;;
48014;SDS011;33780;51.034;7.120;2022-10-16T12:42:23;0.50;;;0.20;;
48014;SDS011;33780;51.034;7.120;2022-10-16T12:44:58;2.33;;;0.52;;
48014;SDS011;33780;51.034;7.120;2022-10-16T12:49:55;1.05;;;0.40;;
48014;SDS011;33780;51.034;7.120;2022-10-16T12:54:59;1.42;;;0.50;;
48014;SDS011;33780;51.034;7.120;2022-10-16T13:00:00;1.15;;;0.20;;
48014;SDS011;33780;51.034;7.120;2022-10-16T13:07:55;1.13;;;0.30;;
48014;SDS011;33780;51.034;7.120;2022-10-16T13:10:52;0.82;;;0.28;;
48014;SDS011;33780;51.034;7.120;2022-10-16T13:13:40;0.80;;;0.30;;
48014;SDS011;33780;51.034;7.120;2022-10-16T13:16:19;2.00;;;0.43;;
48014;SDS011;33780;51.034;7.120;2022-10-16T13:19:16;1.95;;;0.30;;
48014;SDS011;33780;51.034;7.120;2022-10-16T13:25:09;1.00;;;0.40;;
48014;SDS011;33780;51.034;7.120;2022-10-16T13:30:30;1.75;;;0.40;;
48014;SDS011;33780;51.034;7.120;2022-10-16T13:33:04;1.63;;;0.50;;
48014;SDS011;33780;51.034;7.120;2022-10-16T13:35:37;0.77;;;0.40;;
48014;SDS011;33780;51.034;7.120;2022-10-16T13:38:03;1.27;;;0.40;;
48014;SDS011;33780;51.034;7.120;2022-10-16T13:40:47;4.97;;;0.68;;
48014;SDS011;33780;51.034;7.120;2022-10-16T13:43:14;1.25;;;0.35;;
48014;SDS011;33780;51.034;7.120;2022-10-16T13:45:41;0.50;;;0.30;;
48014;SDS011;33780;51.034;7.120;2022-10-16T13:48:21;0.68;;;0.30;;
48014;SDS011;33780;51.034;7.120;2022-10-16T13:50:57;1.00;;;0.32;;
48014;SDS011;33780;51.034;7.120;2022-10-16T13:53:27;1.00;;;0.35;;
48014;SDS011;33780;51.034;7.120;2022-10-16T13:55:52;0.43;;;0.20;;
48014;SDS011;33780;51.034;7.120;2022-10-16T13:58:17;0.60;;;0.30;;
48014;SDS011;33780;51.034;7.120;2022-10-16T14:03:41;1.13;;;0.38;;
48014;SDS011;33780;51.034;7.120;2022-10-16T14:06:25;2.05;;;0.30;;
48014;SDS011;33780;51.034;7.120;2022-10-16T14:11:52;0.55;;;0.20;;
48014;SDS011;33780;51.034;7.120;2022-10-16T14:14:35;0.65;;;0.30;;
48014;SDS011;33780;51.034;7.120;2022-10-16T14:17:26;1.40;;;0.40;;
48014;SDS011;33780;51.034;7.120;2022-10-16T14:20:12;1.67;;;0.30;;
48014;SDS011;33780;51.034;7.120;2022-10-16T14:22:57;1.05;;;0.43;;
48014;SDS011;33780;51.034;7.120;2022-10-16T14:28:38;1.45;;;0.85;;
48014;SDS011;33780;51.034;7.120;2022-10-16T14:31:33;1.17;;;0.52;;
48014;SDS011;33780;51.034;7.120;2022-10-16T14:34:04;1.00;;;0.47;;
48014;SDS011;33780;51.034;7.120;2022-10-16T14:36:33;1.92;;;0.40;;
48014;SDS011;33780;51.034;7.120;2022-10-16T14:39:17;4.82;;;0.77;;
48014;SDS011;33780;51.034;7.120;2022-10-16T14:44:50;2.45;;;0.70;;
48014;SDS011;33780;51.034;7.120;2022-10-16T14:50:40;0.93;;;0.30;;
48014;SDS011;33780;51.034;7.120;2022-10-16T14:53:11;1.92;;;0.43;;
48014;SDS011;33780;51.034;7.120;2022-10-16T14:58:21;0.50;;;0.30;;
48014;SDS011;33780;51.034;7.120;2022-10-16T15:00:58;0.70;;;0.30;;
48014;SDS011;33780;51.034;7.120;2022-10-16T15:03:23;0.73;;;0.30;;
48014;SDS011;33780;51.034;7.120;2022-10-16T15:06:00;0.65;;;0.30;;
48014;SDS011;33780;51.034;7.120;2022-10-16T15:08:56;2.05;;;0.60;;
48014;SDS011;33780;51.034;7.120;2022-10-16T15:14:26;0.60;;;0.30;;
48014;SDS011;33780;51.034;7.120;2022-10-16T15:17:02;2.53;;;0.40;;
48014;SDS011;33780;51.034;7.120;2022-10-16T15:19:43;0.70;;;0.30;;
48014;SDS011;33780;51.034;7.120;2022-10-16T15:28:11;0.95;;;0.30;;
48014;SDS011;33780;51.034;7.120;2022-10-16T15:30:43;0.77;;;0.38;;
48014;SDS011;33780;51.034;7.120;2022-10-16T15:33:15;0.60;;;0.30;;
48014;SDS011;33780;51.034;7.120;2022-10-16T15:35:45;2.00;;;0.40;;
48014;SDS011;33780;51.034;7.120;2022-10-16T15:38:17;1.10;;;0.40;;
48014;SDS011;33780;51.034;7.120;2022-10-16T15:40:55;0.60;;;0.30;;
48014;SDS011;33780;51.034;7.120;2022-10-16T15:43:23;0.45;;;0.30;;
48014;SDS011;33780;51.034;7.120;2022-10-16T15:51:24;0.75;;;0.32;;
48014;SDS011;33780;51.034;7.120;2022-10-16T15:54:02;2.15;;;0.40;;
48014;SDS011;33780;51.034;7.120;2022-10-16T15:56:28;1.30;;;0.55;;
48014;SDS011;33780;51.034;7.120;2022-10-16T15:59:06;0.77;;;0.30;;
48014;SDS011;33780;51.034;7.120;2022-10-16T16:02:00;3.53;;;0.52;;
48014;SDS011;33780;51.034;7.120;2022-10-16T16:04:25;1.30;;;0.47;;
48014;SDS011;33780;51.034;7.120;2022-10-16T16:07:09;2.20;;;0.40;;
48014;SDS011;33780;51.034;7.120;2022-10-16T16:09:59;1.65;;;0.43;;
48014;SDS011;33780;51.034;7.120;2022-10-16T16:12:25;3.97;;;0.50;;
48014;SDS011;33780;51.034;7.120;2022-10-16T16:14:50;0.98;;;0.40;;
48014;SDS011;33780;51.034;7.120;2022-10-16T16:17:24;2.38;;;0.60;;
48014;SDS011;33780;51.034;7.120;2022-10-16T16:19:54;3.65;;;0.50;;
48014;SDS011;33780;51.034;7.120;2022-10-16T16:22:32;1.20;;;0.40;;
48014;SDS011;33780;51.034;7.120;2022-10-16T16:25:06;1.80;;;0.45;;
48014;SDS011;33780;51.034;7.120;2022-10-16T16:27:35;0.80;;;0.40;;
48014;SDS011;33780;51.034;7.120;2022-10-16T16:30:09;1.30;;;0.40;;
48014;SDS011;33780;51.034;7.120;2022-10-16T16:32:40;1.13;;;0.60;;
48014;SDS011;33780;51.034;7.120;2022-10-16T16:35:10;7.80;;;0.60;;
48014;SDS011;33780;51.034;7.120;2022-10-16T16:37:41;1.30;;;0.50;;
48014;SDS011;33780;51.034;7.120;2022-10-16T16:40:14;1.23;;;0.50;;
48014;SDS011;33780;51.034;7.120;2022-10-16T16:42:42;1.48;;;0.50;;
48014;SDS011;33780;51.034;7.120;2022-10-16T16:45:08;1.15;;;0.57;;
48014;SDS011;33780;51.034;7.120;2022-10-16T16:47:36;2.30;;;0.57;;
48014;SDS011;33780;51.034;7.120;2022-10-16T16:50:03;1.10;;;0.50;;
48014;SDS011;33780;51.034;7.120;2022-10-16T16:52:29;1.58;;;0.50;;
48014;SDS011;33780;51.034;7.120;2022-10-16T16:54:57;0.98;;;0.55;;
48014;SDS011;33780;51.034;7.120;2022-10-16T16:57:23;1.48;;;0.50;;
48014;SDS011;33780;51.034;7.120;2022-10-16T16:59:49;1.00;;;0.50;;
48014;SDS011;33780;51.034;7.120;2022-10-16T17:02:16;1.85;;;0.60;;